Time;durP1;ratioP1;P1;durP2;ratioP2;P2;SDS_P1;SDS_P2;PMS_P1;PMS_P2;Temp;Humidity;BMP_temperature;BMP_pressure;BME280_temperature;BME280_humidity;BME280_pressure;Samples;Min_cycle;Max_cycle;Signal;HPM_P1;HPM_P2
2023/09/14 00:00:45;;;;;;;15.77;14.18;;;23.30;93.20;;;;;;5032864;28;20088;-79
2023/09/14 00:03:12;;;;;;;15.32;13.80;;;23.40;93.20;;;;;;5032868;28;20032;-79
2023/09/14 00:05:42;;;;;;;16.67;15.10;;;23.30;93.20;;;;;;5031621;28;20060;-78
2023/09/14 00:08:09;;;;;;;21.58;14.82;;;23.30;93.20;;;;;;5033942;28;20112;-77
2023/09/14 00:10:36;;;;;;;17.25;13.93;;;23.30;93.20;;;;;;5038800;28;20044;-77
2023/09/14 00:13:02;;;;;;;20.40;14.27;;;23.30;93.30;;;;;;5039266;28;20425;-78
2023/09/14 00:15:28;;;;;;;18.92;15.13;;;23.30;93.30;;;;;;5039034;28;20033;-78
2023/09/14 00:17:54;;;;;;;19.75;14.73;;;23.20;93.30;;;;;;5039264;28;20036;-78
2023/09/14 00:20:25;;;;;;;16.90;14.77;;;23.20;93.40;;;;;;5038960;28;20057;-78
2023/09/14 00:22:53;;;;;;;15.55;13.10;;;23.20;93.40;;;;;;5039507;28;20025;-77
2023/09/14 00:25:20;;;;;;;16.83;13.60;;;23.20;93.30;;;;;;5039299;28;20096;-78
2023/09/14 00:27:46;;;;;;;16.27;14.68;;;23.20;93.20;;;;;;5039470;28;20025;-78
2023/09/14 00:30:12;;;;;;;18.58;13.25;;;23.20;93.30;;;;;;5039255;28;20037;-79
2023/09/14 00:32:42;;;;;;;19.92;13.10;;;23.20;93.30;;;;;;5039026;28;20024;-77
2023/09/14 00:35:09;;;;;;;17.63;13.90;;;23.20;93.30;;;;;;5054292;28;20041;-78
2023/09/14 00:37:35;;;;;;;18.33;14.27;;;23.10;93.30;;;;;;5039501;28;20442;-77
2023/09/14 00:40:06;;;;;;;20.88;14.30;;;23.20;93.30;;;;;;5039464;28;20056;-78
2023/09/14 00:42:39;;;;;;;17.45;13.10;;;23.20;93.20;;;;;;5038925;28;20021;-79
2023/09/14 00:45:12;;;;;;;15.52;13.93;;;23.10;93.20;;;;;;5039158;28;20576;-78
2023/09/14 00:47:40;;;;;;;15.70;14.20;;;23.10;93.40;;;;;;5038928;28;20025;-77
2023/09/14 00:50:07;;;;;;;15.45;13.80;;;23.10;93.10;;;;;;5038951;28;20108;-78
2023/09/14 00:52:35;;;;;;;17.70;14.00;;;23.00;93.20;;;;;;5038968;28;20025;-77
2023/09/14 00:55:04;;;;;;;15.35;13.80;;;23.00;93.30;;;;;;5038824;28;20489;-79
2023/09/14 00:57:30;;;;;;;15.20;13.57;;;23.00;93.40;;;;;;5038251;28;20040;-77
2023/09/14 00:59:56;;;;;;;15.43;13.93;;;23.00;93.40;;;;;;5036247;28;20587;-78
2023/09/14 01:02:23;;;;;;;14.93;13.40;;;23.00;93.40;;;;;;5036101;28;20034;-78
2023/09/14 01:04:49;;;;;;;15.68;12.95;;;23.00;93.40;;;;;;5037288;28;20029;-77
2023/09/14 01:07:15;;;;;;;14.02;12.63;;;23.00;93.50;;;;;;5038117;28;20091;-79
2023/09/14 01:09:41;;;;;;;16.98;12.73;;;23.00;93.40;;;;;;5038629;28;20029;-78
2023/09/14 01:12:10;;;;;;;17.15;12.10;;;23.10;93.30;;;;;;5038758;28;20397;-78
2023/09/14 01:14:49;;;;;;;16.38;12.95;;;23.10;93.30;;;;;;5038510;28;20496;-78
2023/09/14 01:17:29;;;;;;;23.80;12.75;;;23.10;93.10;;;;;;5037400;28;20030;-78
2023/09/14 01:20:16;;;;;;;15.88;13.10;;;23.10;93.00;;;;;;5036795;28;20026;-78
2023/09/14 01:22:54;;;;;;;17.55;12.98;;;23.10;93.00;;;;;;5035568;28;20485;-78
2023/09/14 01:25:41;;;;;;;28.17;13.30;;;23.00;93.10;;;;;;5035723;28;20515;-79
2023/09/14 01:28:09;;;;;;;21.17;17.92;;;23.00;93.40;;;;;;5033922;28;20061;-79
2023/09/14 01:30:37;;;;;;;8.32;5.07;;;23.00;94.00;;;;;;5035058;28;20028;-78
2023/09/14 01:33:09;;;;;;;20.52;3.22;;;22.90;92.40;;;;;;5035097;28;20025;-78
2023/09/14 01:35:43;;;;;;;54.10;5.95;;;22.70;91.10;;;;;;5034891;28;20500;-78
2023/09/14 01:38:09;;;;;;;12.48;3.58;;;22.50;91.60;;;;;;5035257;28;20024;-78
2023/09/14 01:40:36;;;;;;;17.70;3.40;;;22.30;92.10;;;;;;5035375;28;20037;-78
2023/09/14 01:43:02;;;;;;;9.95;2.90;;;22.10;92.20;;;;;;5034763;28;20022;-78
2023/09/14 01:45:30;;;;;;;5.55;2.38;;;21.90;92.20;;;;;;5035114;28;20079;-77
2023/09/14 01:47:56;;;;;;;10.23;2.60;;;21.70;92.30;;;;;;5035106;28;20380;-78
2023/09/14 01:50:22;;;;;;;13.07;3.40;;;21.60;92.60;;;;;;5034679;28;20025;-78
2023/09/14 01:52:49;;;;;;;9.23;3.67;;;21.50;93.10;;;;;;5034936;28;20087;-78
2023/09/14 01:55:16;;;;;;;4.55;2.50;;;21.40;93.50;;;;;;5050390;28;20037;-78
2023/09/14 01:57:42;;;;;;;9.00;2.33;;;21.40;93.80;;;;;;5035022;28;20025;-78
2023/09/14 02:00:08;;;;;;;4.18;2.53;;;21.40;93.80;;;;;;5034895;28;20036;-78
2023/09/14 02:02:34;;;;;;;6.03;2.35;;;21.50;93.80;;;;;;5034866;28;20072;-78
2023/09/14 02:05:00;;;;;;;6.82;2.30;;;21.50;93.70;;;;;;5033683;28;20033;-78
2023/09/14 02:07:26;;;;;;;7.57;2.28;;;21.60;93.50;;;;;;5033552;28;20025;-79
2023/09/14 02:09:52;;;;;;;8.20;3.00;;;21.50;93.50;;;;;;5034351;28;20104;-78
2023/09/14 02:12:18;;;;;;;8.05;2.72;;;21.60;93.50;;;;;;5034625;28;20060;-78
2023/09/14 02:14:43;;;;;;;7.75;3.50;;;21.50;93.50;;;;;;5034622;28;20033;-78
2023/09/14 02:17:09;;;;;;;4.80;2.75;;;21.50;93.70;;;;;;5034521;28;20374;-77
2023/09/14 02:19:35;;;;;;;10.57;2.95;;;21.40;93.80;;;;;;5034785;28;20025;-77
2023/09/14 02:22:00;;;;;;;4.75;3.00;;;21.40;93.90;;;;;;5033197;28;20032;-79
2023/09/14 02:24:27;;;;;;;6.03;3.22;;;21.40;94.10;;;;;;5034796;28;20022;-78
2023/09/14 02:26:54;;;;;;;10.98;3.10;;;21.40;94.30;;;;;;5034491;28;20029;-78
2023/09/14 02:29:20;;;;;;;9.65;3.03;;;21.30;94.30;;;;;;5034260;28;20421;-78
2023/09/14 02:31:46;;;;;;;7.85;2.88;;;21.30;94.30;;;;;;5034358;28;20052;-78
2023/09/14 02:34:12;;;;;;;9.18;2.85;;;21.30;94.30;;;;;;5034358;28;20065;-78
2023/09/14 02:36:38;;;;;;;5.43;2.80;;;21.40;94.10;;;;;;5034427;28;20025;-79
2023/09/14 02:39:04;;;;;;;5.90;2.28;;;21.40;93.90;;;;;;5033883;28;20037;-78
2023/09/14 02:41:29;;;;;;;4.63;2.78;;;21.30;93.90;;;;;;5034227;28;20112;-78
2023/09/14 02:43:55;;;;;;;10.73;2.65;;;21.30;93.90;;;;;;5033821;28;20022;-78
2023/09/14 02:46:21;;;;;;;5.97;2.53;;;21.30;94.00;;;;;;5034047;28;20109;-79
2023/09/14 02:48:47;;;;;;;5.65;2.72;;;21.30;94.10;;;;;;5033936;28;20377;-78
2023/09/14 02:51:12;;;;;;;8.60;2.85;;;21.30;94.00;;;;;;5033842;28;20359;-78
2023/09/14 02:53:38;;;;;;;7.30;2.80;;;21.20;94.00;;;;;;5033966;28;20039;-79
2023/09/14 02:56:10;;;;;;;5.30;2.65;;;21.20;94.10;;;;;;5033982;28;20041;-78
2023/09/14 02:58:36;;;;;;;10.63;3.05;;;21.20;94.20;;;;;;5034029;28;20164;-79
2023/09/14 03:01:09;;;;;;;4.38;2.60;;;21.20;94.40;;;;;;5033738;28;20021;-79
2023/09/14 03:03:38;;;;;;;7.57;2.80;;;21.10;94.50;;;;;;5033726;28;20032;-78
2023/09/14 03:06:05;;;;;;;4.88;2.50;;;21.10;94.70;;;;;;5033766;28;20017;-79
2023/09/14 03:08:32;;;;;;;9.48;2.90;;;21.20;94.50;;;;;;5035627;28;20061;-78
2023/09/14 03:10:59;;;;;;;7.60;3.33;;;21.20;94.40;;;;;;5033442;28;20042;-78
2023/09/14 03:13:25;;;;;;;10.27;2.95;;;21.20;94.50;;;;;;5033312;28;20095;-78
2023/09/14 03:15:58;;;;;;;6.70;2.95;;;21.20;94.60;;;;;;5031839;28;20063;-78
2023/09/14 03:18:25;;;;;;;11.63;3.30;;;21.10;94.50;;;;;;5033335;28;20022;-78
2023/09/14 03:20:56;;;;;;;9.35;3.40;;;21.10;94.70;;;;;;5033334;28;20032;-77
2023/09/14 03:23:22;;;;;;;9.98;3.60;;;21.00;94.70;;;;;;5033374;28;20032;-78
2023/09/14 03:25:49;;;;;;;13.88;3.22;;;21.00;94.90;;;;;;5033435;28;20026;-79
2023/09/14 03:28:16;;;;;;;7.55;3.17;;;21.00;94.90;;;;;;5033074;28;20021;-78
2023/09/14 03:30:41;;;;;;;6.10;3.25;;;21.10;94.70;;;;;;5033339;28;20028;-77
2023/09/14 03:33:08;;;;;;;9.30;3.70;;;21.10;94.50;;;;;;5033040;28;20025;-78
2023/09/14 03:35:34;;;;;;;7.45;3.50;;;21.10;94.50;;;;;;5032562;28;20075;-78
2023/09/14 03:38:01;;;;;;;10.82;3.20;;;21.00;94.60;;;;;;5033385;28;20033;-78
2023/09/14 03:40:27;;;;;;;8.25;3.85;;;21.00;94.60;;;;;;5031854;28;20436;-77
2023/09/14 03:42:53;;;;;;;10.50;3.80;;;21.00;94.70;;;;;;5032746;28;20025;-78
2023/09/14 03:45:19;;;;;;;7.32;3.80;;;20.90;94.80;;;;;;5033094;28;20025;-77
2023/09/14 03:47:44;;;;;;;8.20;3.75;;;20.90;94.90;;;;;;5033242;28;20481;-78
2023/09/14 03:50:11;;;;;;;7.35;3.70;;;20.90;94.80;;;;;;5032614;28;20029;-78
2023/09/14 03:52:36;;;;;;;8.35;4.03;;;21.00;94.90;;;;;;5033110;28;20572;-78
2023/09/14 03:55:03;;;;;;;8.23;4.15;;;20.90;94.80;;;;;;5032986;28;20120;-79
2023/09/14 03:57:30;;;;;;;7.00;4.53;;;20.90;94.80;;;;;;5032749;28;20026;-78
2023/09/14 03:59:56;;;;;;;6.90;3.97;;;20.90;94.90;;;;;;5032844;28;20029;-79
2023/09/14 04:02:23;;;;;;;4.93;4.13;;;20.90;95.10;;;;;;5032747;28;20488;-78
2023/09/14 04:04:49;;;;;;;8.57;3.88;;;20.90;95.20;;;;;;5032986;28;20021;-78
2023/09/14 04:07:16;;;;;;;4.13;3.72;;;20.90;95.10;;;;;;5032788;28;20083;-78
2023/09/14 04:09:42;;;;;;;5.45;4.43;;;20.90;95.20;;;;;;5032711;28;20057;-77
2023/09/14 04:12:08;;;;;;;10.10;4.55;;;20.90;95.20;;;;;;5032462;28;20058;-78
2023/09/14 04:14:34;;;;;;;8.80;4.25;;;20.90;95.20;;;;;;5032676;28;20485;-77
2023/09/14 04:17:01;;;;;;;5.65;4.45;;;20.90;95.30;;;;;;5032646;28;20022;-78
2023/09/14 04:19:28;;;;;;;8.52;4.60;;;20.90;95.30;;;;;;5032746;28;20017;-78
2023/09/14 04:21:55;;;;;;;7.63;4.72;;;20.90;95.30;;;;;;5031403;28;20060;-78
2023/09/14 04:24:21;;;;;;;11.50;4.90;;;20.90;95.40;;;;;;5032547;28;20025;-77
2023/09/14 04:26:47;;;;;;;7.50;5.40;;;20.90;95.40;;;;;;5031091;28;20362;-79
2023/09/14 04:29:13;;;;;;;7.28;5.20;;;20.90;95.40;;;;;;5032462;28;20034;-78
2023/09/14 04:31:40;;;;;;;7.57;5.30;;;20.90;95.70;;;;;;5032568;28;20068;-79
2023/09/14 04:34:07;;;;;;;6.07;5.03;;;20.80;95.50;;;;;;5039694;28;20045;-78
2023/09/14 04:36:33;;;;;;;9.02;5.20;;;20.90;95.60;;;;;;5032186;28;20061;-79
2023/09/14 04:39:03;;;;;;;8.02;5.20;;;20.80;95.60;;;;;;5031911;28;20091;-79
2023/09/14 04:41:30;;;;;;;6.50;5.07;;;20.80;95.70;;;;;;5032066;28;20021;-79
2023/09/14 04:43:56;;;;;;;5.25;4.75;;;20.80;95.70;;;;;;5032420;28;20381;-78
2023/09/14 04:46:22;;;;;;;8.45;5.95;;;20.80;95.70;;;;;;5032351;28;20017;-78
2023/09/14 04:48:49;;;;;;;9.52;5.78;;;20.80;95.60;;;;;;5031091;28;20022;-77
2023/09/14 04:51:15;;;;;;;9.85;5.20;;;20.80;95.60;;;;;;5032015;28;20465;-77
2023/09/14 04:53:41;;;;;;;7.30;5.75;;;20.80;95.60;;;;;;5031955;28;20491;-78
2023/09/14 04:56:07;;;;;;;5.60;4.97;;;20.80;95.60;;;;;;5033929;28;20108;-78
2023/09/14 04:58:33;;;;;;;6.55;5.63;;;20.80;95.60;;;;;;5036024;28;20485;-78
2023/09/14 05:00:59;;;;;;;6.45;5.57;;;20.80;95.70;;;;;;5035402;28;20067;-79
2023/09/14 05:03:25;;;;;;;6.32;5.72;;;20.80;95.80;;;;;;5035862;28;20021;-78
2023/09/14 05:05:52;;;;;;;7.65;4.93;;;20.80;95.80;;;;;;5035954;28;20104;-78
2023/09/14 05:08:18;;;;;;;6.65;5.18;;;20.80;95.80;;;;;;5035392;28;20076;-78
2023/09/14 05:10:44;;;;;;;10.00;5.72;;;20.80;95.70;;;;;;5035346;28;20433;-78
2023/09/14 05:13:10;;;;;;;8.35;5.05;;;20.80;95.70;;;;;;5035440;28;20033;-78
2023/09/14 05:15:36;;;;;;;6.10;5.20;;;20.80;95.70;;;;;;5035654;28;20044;-78
2023/09/14 05:18:02;;;;;;;5.88;4.95;;;20.80;95.70;;;;;;5035027;28;20017;-78
2023/09/14 05:20:28;;;;;;;7.18;4.78;;;20.80;95.70;;;;;;5035479;28;20030;-78
2023/09/14 05:22:54;;;;;;;7.25;4.90;;;20.90;95.80;;;;;;5035152;28;20036;-77
2023/09/14 05:25:20;;;;;;;6.03;4.60;;;20.90;95.70;;;;;;5035438;28;20025;-78
2023/09/14 05:27:46;;;;;;;5.68;4.82;;;20.90;95.70;;;;;;5035694;28;20059;-78
2023/09/14 05:30:12;;;;;;;9.75;4.47;;;20.90;95.70;;;;;;5035469;28;20029;-78
2023/09/14 05:32:40;;;;;;;6.18;4.53;;;20.90;95.70;;;;;;5034870;28;20033;-77
2023/09/14 05:35:06;;;;;;;5.65;4.50;;;20.90;95.80;;;;;;5033868;28;20069;-78
2023/09/14 05:37:36;;;;;;;6.38;4.70;;;20.90;95.80;;;;;;5033562;28;20026;-78
2023/09/14 05:40:09;;;;;;;5.38;4.15;;;20.90;95.80;;;;;;5034990;28;20100;-78
2023/09/14 05:42:37;;;;;;;7.20;4.30;;;20.90;95.80;;;;;;5034632;28;20444;-78
2023/09/14 05:45:07;;;;;;;6.90;5.68;;;20.90;95.80;;;;;;5034644;28;20084;-78
2023/09/14 05:47:33;;;;;;;7.97;4.82;;;20.90;95.80;;;;;;5034363;28;20037;-77
2023/09/14 05:49:58;;;;;;;5.72;4.60;;;20.90;95.90;;;;;;5035015;28;20045;-77
2023/09/14 05:52:24;;;;;;;7.32;4.78;;;20.90;95.90;;;;;;5034836;28;20025;-76
2023/09/14 05:54:50;;;;;;;7.53;4.43;;;20.90;95.80;;;;;;5034441;28;20485;-78
2023/09/14 05:57:16;;;;;;;6.35;4.70;;;21.00;95.70;;;;;;5033413;28;20470;-78
2023/09/14 05:59:42;;;;;;;4.88;4.28;;;20.90;95.70;;;;;;5034440;28;20544;-78
2023/09/14 06:02:08;;;;;;;8.45;5.07;;;21.00;95.70;;;;;;5033957;28;20036;-78
2023/09/14 06:04:35;;;;;;;7.60;4.47;;;21.00;95.70;;;;;;5033883;28;20076;-77
2023/09/14 06:07:01;;;;;;;5.57;4.43;;;21.00;95.60;;;;;;5032919;28;20057;-77
2023/09/14 06:09:27;;;;;;;6.20;4.15;;;21.00;95.40;;;;;;5034209;28;20076;-77
2023/09/14 06:11:53;;;;;;;6.22;4.70;;;21.00;95.30;;;;;;5033849;28;20053;-78
2023/09/14 06:14:19;;;;;;;4.78;4.32;;;21.00;95.30;;;;;;5034548;28;20040;-77
2023/09/14 06:16:45;;;;;;;4.55;4.15;;;21.00;95.30;;;;;;5033038;28;20022;-78
2023/09/14 06:19:11;;;;;;;5.78;3.85;;;21.00;95.30;;;;;;5032921;28;20417;-77
2023/09/14 06:21:36;;;;;;;5.72;4.35;;;21.00;95.30;;;;;;5034336;28;20026;-76
2023/09/14 06:24:02;;;;;;;5.75;4.07;;;21.00;95.40;;;;;;5034028;28;20055;-78
2023/09/14 06:26:29;;;;;;;5.30;4.40;;;21.00;95.40;;;;;;5032975;28;20032;-77
2023/09/14 06:28:55;;;;;;;7.70;4.22;;;21.00;95.50;;;;;;5034062;28;20049;-77
2023/09/14 06:31:22;;;;;;;6.15;4.30;;;21.00;95.60;;;;;;5033989;28;20120;-78
2023/09/14 06:33:51;;;;;;;5.93;4.40;;;21.00;95.60;;;;;;5034309;28;20032;-79
2023/09/14 06:36:21;;;;;;;9.65;4.07;;;21.00;95.60;;;;;;5032211;28;20529;-76
2023/09/14 06:38:47;;;;;;;6.65;3.97;;;21.10;95.50;;;;;;5033138;28;20420;-77
2023/09/14 06:41:16;;;;;;;6.63;4.28;;;21.10;95.40;;;;;;5032006;28;20119;-77
2023/09/14 06:43:44;;;;;;;5.88;4.20;;;21.10;95.40;;;;;;5033573;28;20087;-77
2023/09/14 06:46:10;;;;;;;7.82;4.82;;;21.10;95.40;;;;;;5032698;28;20029;-78
2023/09/14 06:48:36;;;;;;;9.90;5.30;;;21.10;95.50;;;;;;5033313;28;20026;-77
2023/09/14 06:51:02;;;;;;;6.82;4.97;;;21.10;95.70;;;;;;5033507;28;20021;-77
2023/09/14 06:53:28;;;;;;;6.50;5.05;;;21.10;95.80;;;;;;5032982;28;20057;-76
2023/09/14 06:55:54;;;;;;;7.28;5.88;;;21.10;96.00;;;;;;5032031;28;20034;-77
2023/09/14 06:58:19;;;;;;;7.07;6.05;;;21.10;96.10;;;;;;5033349;28;20030;-78
2023/09/14 07:00:45;;;;;;;7.15;5.65;;;21.20;96.30;;;;;;5033287;28;20029;-77
2023/09/14 07:03:11;;;;;;;6.13;5.63;;;21.20;96.40;;;;;;5031706;28;20040;-77
2023/09/14 07:05:37;;;;;;;9.18;5.72;;;21.30;96.30;;;;;;5032747;28;20021;-77
2023/09/14 07:08:03;;;;;;;11.57;5.90;;;21.30;96.40;;;;;;5032423;28;20036;-77
2023/09/14 07:10:29;;;;;;;10.52;5.97;;;21.30;96.50;;;;;;5032496;28;20046;-77
2023/09/14 07:12:55;;;;;;;7.90;6.20;;;21.40;96.60;;;;;;5033018;28;20021;-77
2023/09/14 07:15:21;;;;;;;10.27;6.63;;;21.40;96.90;;;;;;5031762;28;20033;-78
2023/09/14 07:17:47;;;;;;;12.93;6.15;;;21.40;96.60;;;;;;5031757;28;20033;-78
2023/09/14 07:20:13;;;;;;;12.27;6.28;;;21.40;96.60;;;;;;5032771;28;20386;-76
2023/09/14 07:22:39;;;;;;;12.73;5.60;;;21.40;96.60;;;;;;5032169;28;20021;-76
2023/09/14 07:25:05;;;;;;;5.88;5.28;;;21.50;96.60;;;;;;5032568;28;20052;-77
2023/09/14 07:27:32;;;;;;;9.77;6.00;;;21.50;96.50;;;;;;5032515;28;20032;-77
2023/09/14 07:29:57;;;;;;;6.85;5.80;;;21.50;96.50;;;;;;5032506;28;20486;-76
2023/09/14 07:32:23;;;;;;;10.15;5.85;;;21.60;96.50;;;;;;5032603;28;20033;-76
2023/09/14 07:34:49;;;;;;;9.52;5.45;;;21.60;96.50;;;;;;5032592;28;20135;-77
2023/09/14 07:37:15;;;;;;;6.20;5.60;;;21.70;96.40;;;;;;5032259;28;20040;-77
2023/09/14 07:39:41;;;;;;;5.65;5.07;;;21.70;96.30;;;;;;5032281;28;20108;-76
2023/09/14 07:42:07;;;;;;;6.43;5.22;;;21.80;96.30;;;;;;5032447;28;20575;-77
2023/09/14 07:44:32;;;;;;;7.78;5.75;;;21.80;96.20;;;;;;5032269;28;20044;-76
2023/09/14 07:46:58;;;;;;;12.20;6.68;;;21.80;96.20;;;;;;5032325;28;20018;-77
2023/09/14 07:49:24;;;;;;;8.10;6.05;;;21.90;96.20;;;;;;5030947;28;20021;-76
2023/09/14 07:51:50;;;;;;;8.07;6.10;;;21.90;96.30;;;;;;5032818;28;20553;-77
2023/09/14 07:54:16;;;;;;;6.10;5.50;;;21.90;96.10;;;;;;5032661;28;20037;-77
2023/09/14 07:56:43;;;;;;;10.23;5.22;;;22.00;96.00;;;;;;5032663;28;20026;-77
2023/09/14 07:59:08;;;;;;;8.63;5.55;;;22.00;95.80;;;;;;5032853;28;20040;-77
2023/09/14 08:01:35;;;;;;;5.88;4.80;;;22.00;96.10;;;;;;5032549;28;20485;-77
2023/09/14 08:04:02;;;;;;;8.73;5.70;;;22.10;95.80;;;;;;5032367;28;20025;-77
2023/09/14 08:06:28;;;;;;;8.35;6.53;;;22.10;95.70;;;;;;5031853;28;20032;-79
2023/09/14 08:08:55;;;;;;;13.10;7.65;;;22.10;95.50;;;;;;5031048;28;20478;-79
2023/09/14 08:11:21;;;;;;;12.80;6.90;;;22.20;95.50;;;;;;5030305;28;20486;-80
2023/09/14 08:13:46;;;;;;;7.40;6.70;;;22.30;95.60;;;;;;5029768;28;20103;-79
2023/09/14 08:16:12;;;;;;;11.18;6.07;;;22.40;95.50;;;;;;5031705;28;20477;-79
2023/09/14 08:18:38;;;;;;;7.47;6.22;;;22.40;95.30;;;;;;5031724;28;20034;-79
2023/09/14 08:21:03;;;;;;;7.45;6.65;;;22.40;95.20;;;;;;5031360;28;20026;-79
2023/09/14 08:23:29;;;;;;;9.35;7.50;;;22.50;95.10;;;;;;5031774;28;20017;-79
2023/09/14 08:25:55;;;;;;;11.52;7.70;;;22.50;95.20;;;;;;5030969;28;20041;-79
2023/09/14 08:28:21;;;;;;;11.88;8.32;;;22.60;95.20;;;;;;5030688;28;20052;-80
2023/09/14 08:30:48;;;;;;;10.43;7.35;;;22.60;95.30;;;;;;5034008;28;20064;-79
2023/09/14 08:33:15;;;;;;;11.68;8.05;;;22.60;95.40;;;;;;5034552;28;20026;-79
2023/09/14 08:35:45;;;;;;;9.13;7.68;;;22.70;95.30;;;;;;5034411;28;20537;-79
2023/09/14 08:38:11;;;;;;;11.07;7.22;;;22.80;95.20;;;;;;5034430;28;20529;-79
2023/09/14 08:40:37;;;;;;;11.00;6.35;;;22.80;95.00;;;;;;5035143;28;20095;-79
2023/09/14 08:43:10;;;;;;;9.35;7.43;;;22.80;94.80;;;;;;5035299;28;20057;-79
2023/09/14 08:45:37;;;;;;;9.32;7.43;;;22.80;94.90;;;;;;5036318;28;20025;-79
2023/09/14 08:48:04;;;;;;;12.68;7.88;;;22.80;94.80;;;;;;5036376;28;20033;-79
2023/09/14 08:50:31;;;;;;;13.05;8.10;;;22.80;94.80;;;;;;5036634;28;20044;-78
2023/09/14 08:52:58;;;;;;;8.70;7.80;;;22.80;94.90;;;;;;5036359;28;20013;-78
2023/09/14 08:55:28;;;;;;;9.85;8.43;;;22.80;94.90;;;;;;5036357;28;20425;-79
2023/09/14 08:57:56;;;;;;;8.95;7.97;;;22.80;94.90;;;;;;5036377;28;20120;-79
2023/09/14 09:00:26;;;;;;;7.78;6.97;;;22.80;94.90;;;;;;5035937;28;20104;-78
2023/09/14 09:02:53;;;;;;;8.07;6.57;;;22.80;95.00;;;;;;5034776;28;20122;-78
2023/09/14 09:05:20;;;;;;;7.45;6.68;;;22.90;94.90;;;;;;5035941;28;20100;-79
2023/09/14 09:07:48;;;;;;;7.90;6.68;;;22.80;94.90;;;;;;5035711;28;20040;-78
2023/09/14 09:10:17;;;;;;;9.90;6.47;;;22.80;94.90;;;;;;5035675;28;20018;-78
2023/09/14 09:12:43;;;;;;;7.75;6.13;;;22.80;94.80;;;;;;5035919;28;20115;-79
2023/09/14 09:15:10;;;;;;;6.25;5.65;;;22.70;95.10;;;;;;5035592;28;20095;-79
2023/09/14 09:17:44;;;;;;;6.55;5.82;;;22.70;95.00;;;;;;5035981;28;20378;-79
2023/09/14 09:20:16;;;;;;;7.13;5.10;;;22.70;95.10;;;;;;5035738;28;20036;-79
2023/09/14 09:22:46;;;;;;;5.07;4.47;;;22.70;95.20;;;;;;5036039;28;20478;-78
2023/09/14 09:25:13;;;;;;;6.07;4.97;;;22.70;95.10;;;;;;5035799;28;20025;-78
2023/09/14 09:27:39;;;;;;;8.50;4.75;;;22.70;95.10;;;;;;5035589;28;20025;-78
2023/09/14 09:30:08;;;;;;;6.50;4.55;;;22.70;95.10;;;;;;5035450;28;20029;-77
2023/09/14 09:32:33;;;;;;;8.75;4.25;;;22.70;95.20;;;;;;5035611;28;20021;-78
2023/09/14 09:35:19;;;;;;;5.07;4.38;;;22.70;95.10;;;;;;5035663;28;20051;-78
2023/09/14 09:37:45;;;;;;;6.13;4.18;;;22.70;94.90;;;;;;5035550;28;20032;-78
2023/09/14 09:40:22;;;;;;;5.82;4.47;;;22.70;94.80;;;;;;5034623;28;20041;-81
2023/09/14 09:42:48;;;;;;;10.50;4.32;;;22.60;94.80;;;;;;5033439;28;20017;-80
2023/09/14 09:45:14;;;;;;;8.00;4.65;;;22.60;94.90;;;;;;5035085;28;20444;-81
2023/09/14 09:47:41;;;;;;;9.88;4.93;;;22.60;95.00;;;;;;5042311;28;20429;-79
2023/09/14 09:50:12;;;;;;;6.57;4.70;;;22.50;95.20;;;;;;5041181;28;20448;-79
2023/09/14 09:52:39;;;;;;;6.90;5.07;;;22.50;95.30;;;;;;5054834;28;20031;-79
2023/09/14 09:55:07;;;;;;;12.43;6.45;;;22.50;95.30;;;;;;5040855;28;20466;-79
2023/09/14 09:57:36;;;;;;;5.60;5.00;;;22.50;95.40;;;;;;5037764;28;20034;-80
2023/09/14 10:00:13;;;;;;;6.10;5.13;;;22.50;95.50;;;;;;5035221;28;20521;-79
2023/09/14 10:02:41;;;;;;;8.27;5.25;;;22.40;95.50;;;;;;5049933;28;20489;-80
2023/09/14 10:05:08;;;;;;;7.35;5.30;;;22.40;95.60;;;;;;5054731;28;20083;-80
2023/09/14 10:07:42;;;;;;;8.20;5.22;;;22.40;95.70;;;;;;5053676;28;20112;-80
2023/09/14 10:10:11;;;;;;;8.55;5.20;;;22.40;95.80;;;;;;5054478;28;20100;-82
2023/09/14 10:12:38;;;;;;;7.32;4.97;;;22.40;95.90;;;;;;5041025;28;20389;-82
2023/09/14 10:15:06;;;;;;;7.78;5.70;;;22.40;95.90;;;;;;5033377;28;20441;-85
2023/09/14 10:17:32;;;;;;;10.77;7.18;;;22.40;95.90;;;;;;5034613;28;20441;-82
2023/09/14 10:20:08;;;;;;;9.23;7.90;;;22.40;95.90;;;;;;5034456;28;20025;-81
2023/09/14 10:22:36;;;;;;;9.85;8.73;;;22.50;95.90;;;;;;5032766;28;20092;-78
2023/09/14 10:25:04;;;;;;;11.35;9.35;;;22.40;96.00;;;;;;5034381;28;20018;-78
2023/09/14 10:27:30;;;;;;;12.77;9.32;;;22.40;96.00;;;;;;5033113;28;20026;-79
2023/09/14 10:29:57;;;;;;;10.73;9.63;;;22.50;96.10;;;;;;5034676;28;20067;-79
2023/09/14 10:32:26;;;;;;;14.23;10.40;;;22.50;96.20;;;;;;5034729;28;20018;-78
2023/09/14 10:34:55;;;;;;;11.23;10.02;;;22.50;96.40;;;;;;5034720;28;20107;-78
2023/09/14 10:37:23;;;;;;;11.55;10.30;;;22.50;96.40;;;;;;5034448;28;20501;-78
2023/09/14 10:39:50;;;;;;;10.90;9.80;;;22.50;96.40;;;;;;5033885;28;20151;-78
2023/09/14 10:42:16;;;;;;;11.68;9.77;;;22.60;96.50;;;;;;5033966;28;20036;-77
2023/09/14 10:44:42;;;;;;;10.40;9.38;;;22.50;96.30;;;;;;5033348;28;20033;-76
2023/09/14 10:47:09;;;;;;;10.38;9.27;;;22.60;96.20;;;;;;5033504;28;20021;-76
2023/09/14 10:49:36;;;;;;;9.82;8.68;;;22.60;96.20;;;;;;5032405;28;20029;-76
2023/09/14 10:52:03;;;;;;;9.68;8.63;;;22.60;96.10;;;;;;5031976;28;20026;-76
2023/09/14 10:54:30;;;;;;;10.55;9.40;;;22.60;96.00;;;;;;5032004;28;20067;-76
2023/09/14 10:57:00;;;;;;;12.20;8.98;;;22.60;96.10;;;;;;5033604;28;20485;-76
2023/09/14 10:59:50;;;;;;;9.52;8.68;;;22.60;96.10;;;;;;5033857;28;20022;-75
2023/09/14 11:02:38;;;;;;;9.23;8.30;;;22.70;96.00;;;;;;5032329;28;20029;-76
2023/09/14 11:05:38;;;;;;;9.32;8.45;;;22.70;96.00;;;;;;5033751;28;20021;-76
2023/09/14 11:08:04;;;;;;;10.48;7.38;;;22.70;96.00;;;;;;5033745;28;20103;-76
2023/09/14 11:10:30;;;;;;;8.80;7.90;;;22.70;95.90;;;;;;5032060;28;20080;-77
2023/09/14 11:13:20;;;;;;;8.30;7.28;;;22.80;95.90;;;;;;5032215;28;20492;-79
2023/09/14 11:16:13;;;;;;;10.10;8.15;;;22.80;95.70;;;;;;5031843;28;20042;-77
2023/09/14 11:18:45;;;;;;;14.02;8.00;;;22.80;95.50;;;;;;5048827;28;20052;-77
2023/09/14 11:21:32;;;;;;;9.05;8.18;;;22.80;95.50;;;;;;5033672;28;20033;-75
2023/09/14 11:23:59;;;;;;;11.88;7.28;;;22.80;95.60;;;;;;5033253;28;20080;-76
2023/09/14 11:26:38;;;;;;;8.02;7.13;;;22.90;95.40;;;;;;5031472;28;20495;-76
2023/09/14 11:29:08;;;;;;;8.27;7.55;;;22.90;95.40;;;;;;5032974;28;20028;-76
2023/09/14 11:31:34;;;;;;;8.38;7.55;;;23.00;95.30;;;;;;5033766;28;20026;-75
2023/09/14 11:34:12;;;;;;;9.15;7.50;;;23.00;95.10;;;;;;5033118;28;20029;-75
2023/09/14 11:36:39;;;;;;;7.90;7.20;;;23.10;95.20;;;;;;5031728;28;20041;-75
2023/09/14 11:39:10;;;;;;;8.23;7.22;;;23.10;95.00;;;;;;5033124;28;20453;-75
2023/09/14 11:42:00;;;;;;;8.75;7.78;;;23.10;94.70;;;;;;5032813;28;20025;-75
2023/09/14 11:44:29;;;;;;;12.68;7.07;;;23.20;94.80;;;;;;5031866;28;20032;-75
2023/09/14 11:46:57;;;;;;;10.35;7.53;;;23.20;94.70;;;;;;5032794;28;20033;-75
2023/09/14 11:49:29;;;;;;;8.65;7.75;;;23.30;94.50;;;;;;5032884;28;20069;-75
2023/09/14 11:51:55;;;;;;;9.32;7.40;;;23.30;94.40;;;;;;5032852;28;20497;-75
2023/09/14 11:54:21;;;;;;;11.23;7.18;;;23.40;94.40;;;;;;5031397;28;20053;-76
2023/09/14 11:56:48;;;;;;;13.60;7.75;;;23.40;94.20;;;;;;5031379;28;20028;-76
2023/09/14 11:59:30;;;;;;;10.38;7.68;;;23.50;94.30;;;;;;5032659;28;20021;-76
2023/09/14 12:01:57;;;;;;;7.90;7.03;;;23.50;94.30;;;;;;5032682;28;20025;-76
2023/09/14 12:04:27;;;;;;;10.93;7.85;;;23.50;94.20;;;;;;5031196;28;20034;-76
2023/09/14 12:06:54;;;;;;;7.40;6.75;;;23.60;94.10;;;;;;5032830;28;20028;-76
2023/09/14 12:09:35;;;;;;;16.20;8.52;;;23.60;94.10;;;;;;5032791;28;20026;-75
2023/09/14 12:12:01;;;;;;;9.70;7.70;;;23.70;94.00;;;;;;5032210;28;20055;-75
2023/09/14 12:14:37;;;;;;;11.00;7.53;;;23.70;94.00;;;;;;5031627;28;20108;-75
2023/09/14 12:17:03;;;;;;;7.05;6.43;;;23.80;93.80;;;;;;5032436;28;20053;-74
2023/09/14 12:19:29;;;;;;;7.80;6.90;;;23.80;93.60;;;;;;5031034;28;20080;-75
2023/09/14 12:21:55;;;;;;;11.48;6.95;;;23.90;93.60;;;;;;5032507;28;20402;-76
2023/09/14 12:24:24;;;;;;;8.13;5.80;;;23.90;93.80;;;;;;5031085;28;20485;-75
2023/09/14 12:26:50;;;;;;;7.05;5.43;;;24.00;93.40;;;;;;5032279;28;20500;-75
2023/09/14 12:29:16;;;;;;;6.07;5.47;;;24.00;93.00;;;;;;5032236;28;20021;-75
2023/09/14 12:31:41;;;;;;;8.13;6.10;;;24.10;92.90;;;;;;5032207;28;20661;-76
2023/09/14 12:34:07;;;;;;;8.10;6.00;;;24.10;93.00;;;;;;5032199;28;20036;-75
2023/09/14 12:36:33;;;;;;;8.48;5.07;;;24.20;93.10;;;;;;5032226;28;20033;-76
2023/09/14 12:38:59;;;;;;;8.63;6.13;;;24.20;92.80;;;;;;5032422;28;20029;-75
2023/09/14 12:41:26;;;;;;;9.98;6.57;;;24.20;92.60;;;;;;5031945;28;20029;-76
2023/09/14 12:43:53;;;;;;;7.55;5.72;;;24.20;92.50;;;;;;5032308;28;20080;-75
2023/09/14 12:46:20;;;;;;;8.45;5.50;;;24.30;92.30;;;;;;5032347;28;20021;-76